sensor_id;sensor_type;location;lat;lon;timestamp;P1;durP1;ratioP1;P2;durP2;ratioP2
60169;SDS011;46042;49.444;6.862;2023-11-21T00:01:05;4.63;;;2.17;;
60169;SDS011;46042;49.444;6.862;2023-11-21T00:03:35;2.92;;;1.88;;
60169;SDS011;46042;49.444;6.862;2023-11-21T00:06:02;4.57;;;2.17;;
60169;SDS011;46042;49.444;6.862;2023-11-21T00:08:29;7.80;;;2.95;;
60169;SDS011;46042;49.444;6.862;2023-11-21T00:10:56;7.60;;;2.67;;
60169;SDS011;46042;49.444;6.862;2023-11-21T00:13:23;7.72;;;2.90;;
60169;SDS011;46042;49.444;6.862;2023-11-21T00:15:50;9.05;;;2.55;;
60169;SDS011;46042;49.444;6.862;2023-11-21T00:18:17;5.32;;;1.92;;
60169;SDS011;46042;49.444;6.862;2023-11-21T00:20:44;6.03;;;2.30;;
60169;SDS011;46042;49.444;6.862;2023-11-21T00:23:11;2.33;;;1.60;;
60169;SDS011;46042;49.444;6.862;2023-11-21T00:25:37;5.20;;;2.45;;
60169;SDS011;46042;49.444;6.862;2023-11-21T00:28:04;6.75;;;2.65;;
60169;SDS011;46042;49.444;6.862;2023-11-21T00:30:32;10.05;;;2.22;;
60169;SDS011;46042;49.444;6.862;2023-11-21T00:32:59;3.25;;;2.13;;
60169;SDS011;46042;49.444;6.862;2023-11-21T00:35:26;2.53;;;1.83;;
60169;SDS011;46042;49.444;6.862;2023-11-21T00:37:53;4.18;;;2.05;;
60169;SDS011;46042;49.444;6.862;2023-11-21T00:40:20;2.72;;;1.70;;
60169;SDS011;46042;49.444;6.862;2023-11-21T00:42:47;3.67;;;1.80;;
60169;SDS011;46042;49.444;6.862;2023-11-21T00:45:14;7.03;;;2.10;;
60169;SDS011;46042;49.444;6.862;2023-11-21T00:47:41;2.75;;;2.30;;
60169;SDS011;46042;49.444;6.862;2023-11-21T00:50:08;2.90;;;2.05;;
60169;SDS011;46042;49.444;6.862;2023-11-21T00:52:36;3.13;;;2.35;;
60169;SDS011;46042;49.444;6.862;2023-11-21T00:55:06;5.43;;;2.28;;
60169;SDS011;46042;49.444;6.862;2023-11-21T00:57:34;3.03;;;2.00;;
60169;SDS011;46042;49.444;6.862;2023-11-21T01:00:01;6.07;;;2.60;;
60169;SDS011;46042;49.444;6.862;2023-11-21T01:02:33;3.30;;;2.05;;
60169;SDS011;46042;49.444;6.862;2023-11-21T01:05:02;3.83;;;2.60;;
60169;SDS011;46042;49.444;6.862;2023-11-21T01:07:30;6.35;;;2.40;;
60169;SDS011;46042;49.444;6.862;2023-11-21T01:09:56;2.58;;;2.00;;
60169;SDS011;46042;49.444;6.862;2023-11-21T01:12:23;2.30;;;2.10;;
60169;SDS011;46042;49.444;6.862;2023-11-21T01:14:51;3.35;;;2.25;;
60169;SDS011;46042;49.444;6.862;2023-11-21T01:17:18;3.03;;;2.20;;
60169;SDS011;46042;49.444;6.862;2023-11-21T01:19:46;3.05;;;2.03;;
60169;SDS011;46042;49.444;6.862;2023-11-21T01:22:13;7.70;;;2.70;;
60169;SDS011;46042;49.444;6.862;2023-11-21T01:24:39;5.20;;;2.72;;
60169;SDS011;46042;49.444;6.862;2023-11-21T01:27:06;5.82;;;2.50;;
60169;SDS011;46042;49.444;6.862;2023-11-21T01:29:33;4.55;;;2.88;;
60169;SDS011;46042;49.444;6.862;2023-11-21T01:32:02;3.25;;;2.40;;
60169;SDS011;46042;49.444;6.862;2023-11-21T01:34:29;4.65;;;2.85;;
60169;SDS011;46042;49.444;6.862;2023-11-21T01:36:57;4.13;;;2.33;;
60169;SDS011;46042;49.444;6.862;2023-11-21T01:39:24;2.17;;;1.88;;
60169;SDS011;46042;49.444;6.862;2023-11-21T01:41:52;3.63;;;2.40;;
60169;SDS011;46042;49.444;6.862;2023-11-21T01:44:18;3.30;;;2.45;;
60169;SDS011;46042;49.444;6.862;2023-11-21T01:46:45;3.35;;;2.17;;
60169;SDS011;46042;49.444;6.862;2023-11-21T01:49:14;2.13;;;1.90;;
60169;SDS011;46042;49.444;6.862;2023-11-21T01:51:42;2.45;;;2.00;;
60169;SDS011;46042;49.444;6.862;2023-11-21T01:54:10;6.28;;;2.38;;
60169;SDS011;46042;49.444;6.862;2023-11-21T01:56:46;2.67;;;1.83;;
60169;SDS011;46042;49.444;6.862;2023-11-21T01:59:14;5.57;;;2.13;;
60169;SDS011;46042;49.444;6.862;2023-11-21T02:01:46;1.95;;;1.73;;
60169;SDS011;46042;49.444;6.862;2023-11-21T02:04:13;2.85;;;2.00;;
60169;SDS011;46042;49.444;6.862;2023-11-21T02:06:40;2.47;;;1.83;;
60169;SDS011;46042;49.444;6.862;2023-11-21T02:09:07;6.75;;;2.33;;
60169;SDS011;46042;49.444;6.862;2023-11-21T02:11:35;4.32;;;1.90;;
60169;SDS011;46042;49.444;6.862;2023-11-21T02:14:01;2.60;;;2.00;;
60169;SDS011;46042;49.444;6.862;2023-11-21T02:16:28;4.00;;;2.22;;
60169;SDS011;46042;49.444;6.862;2023-11-21T02:18:57;4.32;;;1.77;;
60169;SDS011;46042;49.444;6.862;2023-11-21T02:21:25;3.63;;;2.03;;
60169;SDS011;46042;49.444;6.862;2023-11-21T02:23:52;3.22;;;2.38;;
60169;SDS011;46042;49.444;6.862;2023-11-21T02:26:18;3.10;;;1.90;;
60169;SDS011;46042;49.444;6.862;2023-11-21T02:28:46;3.25;;;2.28;;
60169;SDS011;46042;49.444;6.862;2023-11-21T02:31:14;2.95;;;2.35;;
60169;SDS011;46042;49.444;6.862;2023-11-21T02:33:41;2.95;;;2.38;;
60169;SDS011;46042;49.444;6.862;2023-11-21T02:36:07;2.70;;;1.98;;
60169;SDS011;46042;49.444;6.862;2023-11-21T02:38:34;5.45;;;2.28;;
60169;SDS011;46042;49.444;6.862;2023-11-21T02:41:01;3.38;;;2.13;;
60169;SDS011;46042;49.444;6.862;2023-11-21T02:43:28;4.30;;;2.50;;
60169;SDS011;46042;49.444;6.862;2023-11-21T02:45:54;5.07;;;2.38;;
60169;SDS011;46042;49.444;6.862;2023-11-21T02:48:21;2.33;;;2.00;;
60169;SDS011;46042;49.444;6.862;2023-11-21T02:50:50;2.00;;;1.80;;
60169;SDS011;46042;49.444;6.862;2023-11-21T02:53:16;3.22;;;2.03;;
60169;SDS011;46042;49.444;6.862;2023-11-21T02:55:43;2.38;;;1.77;;
60169;SDS011;46042;49.444;6.862;2023-11-21T02:58:10;4.00;;;1.90;;
60169;SDS011;46042;49.444;6.862;2023-11-21T03:00:36;1.80;;;1.65;;
60169;SDS011;46042;49.444;6.862;2023-11-21T03:03:03;2.45;;;1.80;;
60169;SDS011;46042;49.444;6.862;2023-11-21T03:05:30;2.70;;;1.90;;
60169;SDS011;46042;49.444;6.862;2023-11-21T03:07:57;4.32;;;2.05;;
60169;SDS011;46042;49.444;6.862;2023-11-21T03:10:23;2.42;;;1.63;;
60169;SDS011;46042;49.444;6.862;2023-11-21T03:12:50;2.75;;;1.70;;
60169;SDS011;46042;49.444;6.862;2023-11-21T03:15:17;2.03;;;1.80;;
60169;SDS011;46042;49.444;6.862;2023-11-21T03:17:44;5.65;;;1.70;;
60169;SDS011;46042;49.444;6.862;2023-11-21T03:20:10;10.43;;;2.55;;
60169;SDS011;46042;49.444;6.862;2023-11-21T03:22:38;3.75;;;1.88;;
60169;SDS011;46042;49.444;6.862;2023-11-21T03:25:05;2.60;;;1.63;;
60169;SDS011;46042;49.444;6.862;2023-11-21T03:27:32;3.58;;;2.00;;
60169;SDS011;46042;49.444;6.862;2023-11-21T03:29:59;2.42;;;1.73;;
60169;SDS011;46042;49.444;6.862;2023-11-21T03:32:26;8.82;;;2.00;;
60169;SDS011;46042;49.444;6.862;2023-11-21T03:34:53;2.65;;;1.30;;
60169;SDS011;46042;49.444;6.862;2023-11-21T03:37:25;2.53;;;1.70;;
60169;SDS011;46042;49.444;6.862;2023-11-21T03:39:55;3.35;;;1.70;;
60169;SDS011;46042;49.444;6.862;2023-11-21T03:42:23;6.68;;;2.10;;
60169;SDS011;46042;49.444;6.862;2023-11-21T03:44:53;1.60;;;1.50;;
60169;SDS011;46042;49.444;6.862;2023-11-21T03:47:20;2.67;;;1.52;;
60169;SDS011;46042;49.444;6.862;2023-11-21T03:49:46;3.88;;;1.60;;
60169;SDS011;46042;49.444;6.862;2023-11-21T03:52:13;2.40;;;1.80;;
60169;SDS011;46042;49.444;6.862;2023-11-21T03:54:40;1.80;;;1.60;;
60169;SDS011;46042;49.444;6.862;2023-11-21T03:57:07;1.48;;;1.35;;
60169;SDS011;46042;49.444;6.862;2023-11-21T03:59:33;7.07;;;1.35;;
60169;SDS011;46042;49.444;6.862;2023-11-21T04:02:00;2.15;;;1.70;;
60169;SDS011;46042;49.444;6.862;2023-11-21T04:04:27;1.45;;;1.30;;
60169;SDS011;46042;49.444;6.862;2023-11-21T04:06:54;2.13;;;1.50;;
60169;SDS011;46042;49.444;6.862;2023-11-21T04:09:20;3.42;;;1.30;;
60169;SDS011;46042;49.444;6.862;2023-11-21T04:11:51;6.13;;;1.45;;
60169;SDS011;46042;49.444;6.862;2023-11-21T04:14:18;1.85;;;1.40;;
60169;SDS011;46042;49.444;6.862;2023-11-21T04:16:45;5.40;;;1.25;;
60169;SDS011;46042;49.444;6.862;2023-11-21T04:19:12;1.27;;;1.17;;
60169;SDS011;46042;49.444;6.862;2023-11-21T04:21:42;1.30;;;1.15;;
60169;SDS011;46042;49.444;6.862;2023-11-21T04:24:08;1.92;;;1.33;;
60169;SDS011;46042;49.444;6.862;2023-11-21T04:26:35;8.20;;;1.67;;
60169;SDS011;46042;49.444;6.862;2023-11-21T04:29:02;1.20;;;1.10;;
60169;SDS011;46042;49.444;6.862;2023-11-21T04:31:32;1.40;;;1.30;;
60169;SDS011;46042;49.444;6.862;2023-11-21T04:33:59;2.70;;;1.23;;
60169;SDS011;46042;49.444;6.862;2023-11-21T04:36:26;4.03;;;1.30;;
60169;SDS011;46042;49.444;6.862;2023-11-21T04:38:53;2.33;;;1.27;;
60169;SDS011;46042;49.444;6.862;2023-11-21T04:41:19;2.20;;;1.50;;
60169;SDS011;46042;49.444;6.862;2023-11-21T04:43:46;1.17;;;1.08;;
60169;SDS011;46042;49.444;6.862;2023-11-21T04:46:13;2.72;;;1.20;;
60169;SDS011;46042;49.444;6.862;2023-11-21T04:48:39;4.30;;;1.52;;
60169;SDS011;46042;49.444;6.862;2023-11-21T04:51:06;3.20;;;1.45;;
60169;SDS011;46042;49.444;6.862;2023-11-21T04:53:33;5.65;;;1.50;;
60169;SDS011;46042;49.444;6.862;2023-11-21T04:56:01;3.42;;;1.77;;
60169;SDS011;46042;49.444;6.862;2023-11-21T04:58:28;3.97;;;2.38;;
60169;SDS011;46042;49.444;6.862;2023-11-21T05:00:54;3.05;;;1.20;;
60169;SDS011;46042;49.444;6.862;2023-11-21T05:03:21;3.15;;;1.27;;
60169;SDS011;46042;49.444;6.862;2023-11-21T05:05:50;0.82;;;0.80;;
60169;SDS011;46042;49.444;6.862;2023-11-21T05:08:17;1.05;;;0.90;;
60169;SDS011;46042;49.444;6.862;2023-11-21T05:10:43;2.17;;;1.30;;
60169;SDS011;46042;49.444;6.862;2023-11-21T05:13:10;1.58;;;1.00;;
60169;SDS011;46042;49.444;6.862;2023-11-21T05:15:37;1.15;;;1.05;;
60169;SDS011;46042;49.444;6.862;2023-11-21T05:18:05;2.05;;;1.00;;
60169;SDS011;46042;49.444;6.862;2023-11-21T05:20:33;2.42;;;1.00;;
60169;SDS011;46042;49.444;6.862;2023-11-21T05:22:59;2.00;;;1.27;;
60169;SDS011;46042;49.444;6.862;2023-11-21T05:25:26;1.70;;;1.10;;
60169;SDS011;46042;49.444;6.862;2023-11-21T05:27:53;2.80;;;1.45;;
60169;SDS011;46042;49.444;6.862;2023-11-21T05:30:21;1.30;;;1.10;;
60169;SDS011;46042;49.444;6.862;2023-11-21T05:32:48;1.88;;;1.00;;
60169;SDS011;46042;49.444;6.862;2023-11-21T05:35:16;2.33;;;0.90;;
60169;SDS011;46042;49.444;6.862;2023-11-21T05:37:44;1.10;;;0.98;;
60169;SDS011;46042;49.444;6.862;2023-11-21T05:40:14;3.30;;;1.07;;
60169;SDS011;46042;49.444;6.862;2023-11-21T05:42:41;2.30;;;1.25;;
60169;SDS011;46042;49.444;6.862;2023-11-21T05:45:08;2.35;;;1.05;;
60169;SDS011;46042;49.444;6.862;2023-11-21T05:47:45;1.15;;;0.90;;
60169;SDS011;46042;49.444;6.862;2023-11-21T05:50:14;1.40;;;1.15;;
60169;SDS011;46042;49.444;6.862;2023-11-21T05:52:43;1.45;;;1.33;;
60169;SDS011;46042;49.444;6.862;2023-11-21T05:55:11;1.65;;;1.10;;
60169;SDS011;46042;49.444;6.862;2023-11-21T05:57:38;2.92;;;0.95;;
60169;SDS011;46042;49.444;6.862;2023-11-21T06:00:09;3.00;;;1.30;;
60169;SDS011;46042;49.444;6.862;2023-11-21T06:02:38;3.47;;;1.50;;
60169;SDS011;46042;49.444;6.862;2023-11-21T06:05:06;3.40;;;1.33;;
60169;SDS011;46042;49.444;6.862;2023-11-21T06:07:34;7.53;;;1.27;;
60169;SDS011;46042;49.444;6.862;2023-11-21T06:10:04;6.18;;;1.42;;
60169;SDS011;46042;49.444;6.862;2023-11-21T06:12:35;2.42;;;1.20;;
60169;SDS011;46042;49.444;6.862;2023-11-21T06:15:03;2.60;;;1.45;;
60169;SDS011;46042;49.444;6.862;2023-11-21T06:17:35;3.88;;;1.65;;
60169;SDS011;46042;49.444;6.862;2023-11-21T06:20:03;2.25;;;1.67;;
60169;SDS011;46042;49.444;6.862;2023-11-21T06:22:38;3.65;;;2.00;;
60169;SDS011;46042;49.444;6.862;2023-11-21T06:27:36;4.20;;;2.10;;
60169;SDS011;46042;49.444;6.862;2023-11-21T06:30:05;2.33;;;1.90;;
60169;SDS011;46042;49.444;6.862;2023-11-21T06:32:32;4.60;;;2.13;;
60169;SDS011;46042;49.444;6.862;2023-11-21T06:34:59;5.93;;;2.58;;
60169;SDS011;46042;49.444;6.862;2023-11-21T06:37:26;4.90;;;2.42;;
60169;SDS011;46042;49.444;6.862;2023-11-21T06:39:53;4.20;;;2.45;;
60169;SDS011;46042;49.444;6.862;2023-11-21T06:42:22;5.28;;;2.63;;
60169;SDS011;46042;49.444;6.862;2023-11-21T06:44:50;5.50;;;3.30;;
60169;SDS011;46042;49.444;6.862;2023-11-21T06:47:20;6.03;;;2.95;;
60169;SDS011;46042;49.444;6.862;2023-11-21T06:49:47;5.25;;;2.78;;
60169;SDS011;46042;49.444;6.862;2023-11-21T06:52:16;5.68;;;3.10;;
60169;SDS011;46042;49.444;6.862;2023-11-21T06:54:44;8.32;;;3.03;;
60169;SDS011;46042;49.444;6.862;2023-11-21T06:57:11;10.25;;;3.03;;
60169;SDS011;46042;49.444;6.862;2023-11-21T06:59:38;10.00;;;3.10;;
60169;SDS011;46042;49.444;6.862;2023-11-21T07:02:05;7.82;;;3.30;;
60169;SDS011;46042;49.444;6.862;2023-11-21T07:04:36;6.88;;;3.33;;
60169;SDS011;46042;49.444;6.862;2023-11-21T07:07:03;8.68;;;3.08;;
60169;SDS011;46042;49.444;6.862;2023-11-21T07:09:30;7.50;;;3.60;;
60169;SDS011;46042;49.444;6.862;2023-11-21T07:11:57;7.07;;;3.03;;
60169;SDS011;46042;49.444;6.862;2023-11-21T07:14:24;5.00;;;2.97;;
60169;SDS011;46042;49.444;6.862;2023-11-21T07:16:50;5.25;;;3.30;;
60169;SDS011;46042;49.444;6.862;2023-11-21T07:19:19;7.07;;;3.05;;
60169;SDS011;46042;49.444;6.862;2023-11-21T07:21:48;8.85;;;3.47;;
60169;SDS011;46042;49.444;6.862;2023-11-21T07:24:17;4.85;;;2.75;;
60169;SDS011;46042;49.444;6.862;2023-11-21T07:26:44;4.03;;;2.78;;
60169;SDS011;46042;49.444;6.862;2023-11-21T07:29:11;3.58;;;2.63;;
60169;SDS011;46042;49.444;6.862;2023-11-21T07:31:38;3.70;;;2.75;;
60169;SDS011;46042;49.444;6.862;2023-11-21T07:34:05;3.75;;;2.53;;
60169;SDS011;46042;49.444;6.862;2023-11-21T07:36:32;6.05;;;2.60;;
60169;SDS011;46042;49.444;6.862;2023-11-21T07:38:58;6.32;;;2.92;;
60169;SDS011;46042;49.444;6.862;2023-11-21T07:41:25;12.65;;;2.95;;
60169;SDS011;46042;49.444;6.862;2023-11-21T07:43:57;4.20;;;2.75;;
60169;SDS011;46042;49.444;6.862;2023-11-21T07:46:25;3.70;;;2.28;;
60169;SDS011;46042;49.444;6.862;2023-11-21T07:48:53;5.43;;;2.83;;
60169;SDS011;46042;49.444;6.862;2023-11-21T07:51:21;6.60;;;2.53;;
60169;SDS011;46042;49.444;6.862;2023-11-21T07:53:48;5.18;;;2.63;;
60169;SDS011;46042;49.444;6.862;2023-11-21T07:56:16;8.20;;;4.40;;
60169;SDS011;46042;49.444;6.862;2023-11-21T07:58:42;11.48;;;3.50;;
60169;SDS011;46042;49.444;6.862;2023-11-21T08:01:09;4.57;;;2.78;;
60169;SDS011;46042;49.444;6.862;2023-11-21T08:03:36;5.40;;;2.92;;
60169;SDS011;46042;49.444;6.862;2023-11-21T08:06:03;5.00;;;2.80;;
60169;SDS011;46042;49.444;6.862;2023-11-21T08:08:32;5.07;;;3.10;;
60169;SDS011;46042;49.444;6.862;2023-11-21T08:10:59;6.70;;;2.88;;
60169;SDS011;46042;49.444;6.862;2023-11-21T08:13:28;8.43;;;3.22;;
60169;SDS011;46042;49.444;6.862;2023-11-21T08:15:57;6.55;;;3.03;;
60169;SDS011;46042;49.444;6.862;2023-11-21T08:18:28;5.00;;;2.88;;
60169;SDS011;46042;49.444;6.862;2023-11-21T08:20:56;5.25;;;3.15;;
60169;SDS011;46042;49.444;6.862;2023-11-21T08:23:23;6.95;;;2.85;;
60169;SDS011;46042;49.444;6.862;2023-11-21T08:25:53;8.93;;;2.90;;
60169;SDS011;46042;49.444;6.862;2023-11-21T08:28:20;6.70;;;3.55;;
60169;SDS011;46042;49.444;6.862;2023-11-21T08:30:52;5.20;;;3.20;;
60169;SDS011;46042;49.444;6.862;2023-11-21T08:33:20;8.90;;;3.38;;
60169;SDS011;46042;49.444;6.862;2023-11-21T08:35:47;6.22;;;3.20;;
60169;SDS011;46042;49.444;6.862;2023-11-21T08:38:14;6.53;;;2.80;;
60169;SDS011;46042;49.444;6.862;2023-11-21T08:40:41;4.90;;;2.58;;
60169;SDS011;46042;49.444;6.862;2023-11-21T08:43:08;3.40;;;2.40;;
60169;SDS011;46042;49.444;6.862;2023-11-21T08:45:35;5.68;;;2.50;;
60169;SDS011;46042;49.444;6.862;2023-11-21T08:48:01;4.43;;;2.63;;
60169;SDS011;46042;49.444;6.862;2023-11-21T08:50:29;4.00;;;2.72;;
60169;SDS011;46042;49.444;6.862;2023-11-21T08:52:56;4.18;;;2.40;;
60169;SDS011;46042;49.444;6.862;2023-11-21T08:55:22;4.13;;;2.10;;
60169;SDS011;46042;49.444;6.862;2023-11-21T08:57:49;3.50;;;2.38;;
60169;SDS011;46042;49.444;6.862;2023-11-21T09:00:17;3.25;;;2.20;;
60169;SDS011;46042;49.444;6.862;2023-11-21T09:02:45;3.45;;;2.20;;
60169;SDS011;46042;49.444;6.862;2023-11-21T09:05:13;2.00;;;1.80;;
60169;SDS011;46042;49.444;6.862;2023-11-21T09:07:41;7.72;;;2.67;;
60169;SDS011;46042;49.444;6.862;2023-11-21T09:10:08;4.35;;;1.83;;
60169;SDS011;46042;49.444;6.862;2023-11-21T09:12:36;5.60;;;2.30;;
60169;SDS011;46042;49.444;6.862;2023-11-21T09:15:04;2.70;;;1.98;;
60169;SDS011;46042;49.444;6.862;2023-11-21T09:17:33;4.28;;;2.10;;
60169;SDS011;46042;49.444;6.862;2023-11-21T09:20:01;3.25;;;1.90;;
60169;SDS011;46042;49.444;6.862;2023-11-21T09:22:32;7.15;;;2.38;;
60169;SDS011;46042;49.444;6.862;2023-11-21T09:24:58;2.22;;;1.80;;
60169;SDS011;46042;49.444;6.862;2023-11-21T09:27:25;3.05;;;2.30;;
60169;SDS011;46042;49.444;6.862;2023-11-21T09:29:52;3.22;;;2.40;;
60169;SDS011;46042;49.444;6.862;2023-11-21T09:32:20;3.47;;;2.33;;
60169;SDS011;46042;49.444;6.862;2023-11-21T09:34:51;3.47;;;2.25;;
60169;SDS011;46042;49.444;6.862;2023-11-21T09:37:17;5.20;;;2.30;;
60169;SDS011;46042;49.444;6.862;2023-11-21T09:39:45;4.35;;;2.30;;
60169;SDS011;46042;49.444;6.862;2023-11-21T09:42:19;3.47;;;2.22;;
60169;SDS011;46042;49.444;6.862;2023-11-21T09:44:54;5.63;;;2.05;;
60169;SDS011;46042;49.444;6.862;2023-11-21T09:47:30;4.97;;;2.20;;
60169;SDS011;46042;49.444;6.862;2023-11-21T09:49:59;5.93;;;2.90;;
60169;SDS011;46042;49.444;6.862;2023-11-21T09:52:28;3.05;;;2.30;;
60169;SDS011;46042;49.444;6.862;2023-11-21T09:54:55;3.03;;;2.38;;
60169;SDS011;46042;49.444;6.862;2023-11-21T09:57:25;4.50;;;2.38;;
60169;SDS011;46042;49.444;6.862;2023-11-21T09:59:52;5.22;;;2.40;;
60169;SDS011;46042;49.444;6.862;2023-11-21T10:02:26;2.25;;;2.05;;
60169;SDS011;46042;49.444;6.862;2023-11-21T10:04:58;4.28;;;2.40;;
60169;SDS011;46042;49.444;6.862;2023-11-21T10:07:27;2.90;;;2.00;;
60169;SDS011;46042;49.444;6.862;2023-11-21T10:10:00;3.83;;;2.30;;
60169;SDS011;46042;49.444;6.862;2023-11-21T10:12:28;4.60;;;2.10;;
60169;SDS011;46042;49.444;6.862;2023-11-21T10:14:57;3.70;;;2.10;;
60169;SDS011;46042;49.444;6.862;2023-11-21T10:17:26;3.92;;;2.13;;
60169;SDS011;46042;49.444;6.862;2023-11-21T10:20:03;3.63;;;2.30;;
60169;SDS011;46042;49.444;6.862;2023-11-21T10:22:38;4.40;;;2.40;;
60169;SDS011;46042;49.444;6.862;2023-11-21T10:25:10;4.82;;;2.05;;
60169;SDS011;46042;49.444;6.862;2023-11-21T10:27:37;6.03;;;2.40;;
60169;SDS011;46042;49.444;6.862;2023-11-21T10:30:07;4.17;;;2.40;;
60169;SDS011;46042;49.444;6.862;2023-11-21T10:32:39;3.25;;;2.08;;
60169;SDS011;46042;49.444;6.862;2023-11-21T10:35:07;4.32;;;2.53;;
60169;SDS011;46042;49.444;6.862;2023-11-21T10:37:40;4.40;;;2.78;;
60169;SDS011;46042;49.444;6.862;2023-11-21T10:40:11;5.72;;;2.28;;
60169;SDS011;46042;49.444;6.862;2023-11-21T10:42:41;3.13;;;2.53;;
60169;SDS011;46042;49.444;6.862;2023-11-21T10:45:08;3.20;;;2.33;;
60169;SDS011;46042;49.444;6.862;2023-11-21T10:50:07;5.85;;;2.42;;
60169;SDS011;46042;49.444;6.862;2023-11-21T10:52:37;7.60;;;2.97;;
60169;SDS011;46042;49.444;6.862;2023-11-21T10:55:19;3.97;;;2.58;;
60169;SDS011;46042;49.444;6.862;2023-11-21T10:57:52;4.40;;;3.10;;
60169;SDS011;46042;49.444;6.862;2023-11-21T11:00:20;6.78;;;3.10;;
60169;SDS011;46042;49.444;6.862;2023-11-21T11:02:48;4.35;;;2.85;;
60169;SDS011;46042;49.444;6.862;2023-11-21T11:07:47;4.97;;;2.20;;
60169;SDS011;46042;49.444;6.862;2023-11-21T11:10:15;5.88;;;2.85;;
60169;SDS011;46042;49.444;6.862;2023-11-21T11:12:42;5.60;;;2.15;;
60169;SDS011;46042;49.444;6.862;2023-11-21T11:15:10;3.78;;;2.60;;
60169;SDS011;46042;49.444;6.862;2023-11-21T11:17:38;7.57;;;3.08;;
60169;SDS011;46042;49.444;6.862;2023-11-21T11:20:05;5.22;;;3.10;;
60169;SDS011;46042;49.444;6.862;2023-11-21T11:22:44;4.25;;;3.15;;
60169;SDS011;46042;49.444;6.862;2023-11-21T11:25:17;6.97;;;2.72;;
60169;SDS011;46042;49.444;6.862;2023-11-21T11:28:22;5.50;;;2.90;;
60169;SDS011;46042;49.444;6.862;2023-11-21T11:31:14;7.47;;;3.58;;
60169;SDS011;46042;49.444;6.862;2023-11-21T11:34:08;5.20;;;2.58;;
60169;SDS011;46042;49.444;6.862;2023-11-21T11:36:54;3.85;;;2.50;;
60169;SDS011;46042;49.444;6.862;2023-11-21T11:39:37;3.43;;;2.40;;
60169;SDS011;46042;49.444;6.862;2023-11-21T11:42:07;4.80;;;2.50;;
60169;SDS011;46042;49.444;6.862;2023-11-21T11:50:07;4.78;;;2.67;;
60169;SDS011;46042;49.444;6.862;2023-11-21T11:52:51;7.15;;;3.25;;
60169;SDS011;46042;49.444;6.862;2023-11-21T11:55:22;3.88;;;2.90;;
60169;SDS011;46042;49.444;6.862;2023-11-21T11:57:51;8.20;;;2.97;;
60169;SDS011;46042;49.444;6.862;2023-11-21T12:00:20;5.03;;;2.90;;
60169;SDS011;46042;49.444;6.862;2023-11-21T12:02:56;3.50;;;2.50;;
60169;SDS011;46042;49.444;6.862;2023-11-21T12:05:29;6.35;;;3.33;;
60169;SDS011;46042;49.444;6.862;2023-11-21T12:08:03;6.55;;;3.08;;
60169;SDS011;46042;49.444;6.862;2023-11-21T12:10:31;7.18;;;2.95;;
60169;SDS011;46042;49.444;6.862;2023-11-21T12:15:36;4.72;;;2.80;;
60169;SDS011;46042;49.444;6.862;2023-11-21T12:18:04;5.22;;;3.28;;
60169;SDS011;46042;49.444;6.862;2023-11-21T12:20:31;5.32;;;3.03;;
60169;SDS011;46042;49.444;6.862;2023-11-21T12:22:59;4.47;;;3.03;;
60169;SDS011;46042;49.444;6.862;2023-11-21T12:25:27;6.32;;;2.90;;
60169;SDS011;46042;49.444;6.862;2023-11-21T12:27:58;5.18;;;2.90;;
60169;SDS011;46042;49.444;6.862;2023-11-21T12:30:26;5.65;;;2.63;;
60169;SDS011;46042;49.444;6.862;2023-11-21T12:32:57;5.65;;;2.92;;
60169;SDS011;46042;49.444;6.862;2023-11-21T12:35:25;6.18;;;3.00;;
60169;SDS011;46042;49.444;6.862;2023-11-21T12:37:56;4.13;;;2.85;;
60169;SDS011;46042;49.444;6.862;2023-11-21T12:40:24;5.50;;;3.40;;
60169;SDS011;46042;49.444;6.862;2023-11-21T12:42:52;5.20;;;3.03;;
60169;SDS011;46042;49.444;6.862;2023-11-21T12:45:21;4.90;;;3.00;;
60169;SDS011;46042;49.444;6.862;2023-11-21T12:47:59;5.43;;;3.20;;
60169;SDS011;46042;49.444;6.862;2023-11-21T12:50:35;9.65;;;3.00;;
60169;SDS011;46042;49.444;6.862;2023-11-21T12:53:04;6.72;;;3.85;;
60169;SDS011;46042;49.444;6.862;2023-11-21T12:55:32;4.18;;;2.90;;
60169;SDS011;46042;49.444;6.862;2023-11-21T12:58:02;4.50;;;3.28;;
60169;SDS011;46042;49.444;6.862;2023-11-21T13:03:16;4.78;;;3.17;;
60169;SDS011;46042;49.444;6.862;2023-11-21T13:05:47;5.68;;;3.20;;
60169;SDS011;46042;49.444;6.862;2023-11-21T13:08:21;7.32;;;3.58;;
60169;SDS011;46042;49.444;6.862;2023-11-21T13:10:54;6.10;;;3.35;;
60169;SDS011;46042;49.444;6.862;2023-11-21T13:13:23;8.60;;;3.15;;
60169;SDS011;46042;49.444;6.862;2023-11-21T13:15:55;4.00;;;2.75;;
60169;SDS011;46042;49.444;6.862;2023-11-21T13:18:32;4.35;;;2.72;;
60169;SDS011;46042;49.444;6.862;2023-11-21T13:21:00;4.75;;;3.05;;
60169;SDS011;46042;49.444;6.862;2023-11-21T13:23:34;7.47;;;3.55;;
60169;SDS011;46042;49.444;6.862;2023-11-21T13:26:02;10.55;;;2.85;;
60169;SDS011;46042;49.444;6.862;2023-11-21T13:28:33;5.95;;;3.25;;
60169;SDS011;46042;49.444;6.862;2023-11-21T13:31:01;4.55;;;3.28;;
60169;SDS011;46042;49.444;6.862;2023-11-21T13:33:37;5.47;;;3.25;;
60169;SDS011;46042;49.444;6.862;2023-11-21T13:36:05;4.57;;;3.85;;
60169;SDS011;46042;49.444;6.862;2023-11-21T13:38:37;7.13;;;3.28;;
60169;SDS011;46042;49.444;6.862;2023-11-21T13:41:08;9.00;;;3.10;;
60169;SDS011;46042;49.444;6.862;2023-11-21T13:43:36;7.22;;;3.35;;
60169;SDS011;46042;49.444;6.862;2023-11-21T13:46:04;6.30;;;4.13;;
60169;SDS011;46042;49.444;6.862;2023-11-21T13:48:40;6.15;;;3.55;;
60169;SDS011;46042;49.444;6.862;2023-11-21T13:51:17;7.55;;;4.15;;
60169;SDS011;46042;49.444;6.862;2023-11-21T13:53:44;7.72;;;3.80;;
60169;SDS011;46042;49.444;6.862;2023-11-21T13:56:14;5.37;;;3.60;;
60169;SDS011;46042;49.444;6.862;2023-11-21T13:58:51;5.65;;;3.63;;
60169;SDS011;46042;49.444;6.862;2023-11-21T14:01:19;6.30;;;3.88;;
60169;SDS011;46042;49.444;6.862;2023-11-21T14:03:59;6.38;;;3.65;;
60169;SDS011;46042;49.444;6.862;2023-11-21T14:06:42;7.75;;;3.92;;
60169;SDS011;46042;49.444;6.862;2023-11-21T14:09:18;6.50;;;3.88;;
60169;SDS011;46042;49.444;6.862;2023-11-21T14:11:53;7.97;;;4.47;;
60169;SDS011;46042;49.444;6.862;2023-11-21T14:14:24;6.38;;;4.05;;
60169;SDS011;46042;49.444;6.862;2023-11-21T14:16:52;6.47;;;4.00;;
60169;SDS011;46042;49.444;6.862;2023-11-21T14:19:19;7.65;;;4.50;;
60169;SDS011;46042;49.444;6.862;2023-11-21T14:21:46;9.55;;;3.90;;
60169;SDS011;46042;49.444;6.862;2023-11-21T14:24:15;8.00;;;4.18;;
60169;SDS011;46042;49.444;6.862;2023-11-21T14:26:45;7.95;;;4.00;;
60169;SDS011;46042;49.444;6.862;2023-11-21T14:29:12;13.70;;;4.82;;
60169;SDS011;46042;49.444;6.862;2023-11-21T14:31:42;6.55;;;4.13;;
60169;SDS011;46042;49.444;6.862;2023-11-21T14:34:09;9.32;;;4.15;;
60169;SDS011;46042;49.444;6.862;2023-11-21T14:36:38;6.50;;;4.40;;
60169;SDS011;46042;49.444;6.862;2023-11-21T14:39:09;9.27;;;4.20;;
60169;SDS011;46042;49.444;6.862;2023-11-21T14:41:46;8.57;;;3.75;;
60169;SDS011;46042;49.444;6.862;2023-11-21T14:44:13;5.85;;;3.63;;
60169;SDS011;46042;49.444;6.862;2023-11-21T14:46:41;5.35;;;3.38;;
60169;SDS011;46042;49.444;6.862;2023-11-21T14:51:49;9.57;;;3.70;;
60169;SDS011;46042;49.444;6.862;2023-11-21T14:54:31;6.50;;;3.53;;
60169;SDS011;46042;49.444;6.862;2023-11-21T14:57:09;5.83;;;4.00;;
60169;SDS011;46042;49.444;6.862;2023-11-21T14:59:43;10.35;;;4.10;;
60169;SDS011;46042;49.444;6.862;2023-11-21T15:02:18;5.47;;;3.80;;
60169;SDS011;46042;49.444;6.862;2023-11-21T15:05:08;4.95;;;3.30;;
60169;SDS011;46042;49.444;6.862;2023-11-21T15:07:41;10.02;;;3.83;;
60169;SDS011;46042;49.444;6.862;2023-11-21T15:10:07;6.28;;;3.72;;
60169;SDS011;46042;49.444;6.862;2023-11-21T15:12:42;7.35;;;3.38;;
60169;SDS011;46042;49.444;6.862;2023-11-21T15:15:10;5.50;;;3.58;;
60169;SDS011;46042;49.444;6.862;2023-11-21T15:17:38;7.53;;;4.03;;
60169;SDS011;46042;49.444;6.862;2023-11-21T15:20:09;9.93;;;3.65;;